Time;durP1;ratioP1;P1;durP2;ratioP2;P2;SDS_P1;SDS_P2;PMS_P1;PMS_P2;Temp;Humidity;BMP_temperature;BMP_pressure;BME280_temperature;BME280_humidity;BME280_pressure;Samples;Min_cycle;Max_cycle;Signal;HPM_P1;HPM_P2
2024/02/15 00:00:11;;;;;;;6.60;4.47;;;;;;;8.23;54.14;100011.03;5033571;28;20053;-41
2024/02/15 00:02:36;;;;;;;6.35;4.70;;;;;;;8.43;53.31;100013.16;5033328;28;20033;-40
2024/02/15 00:05:02;;;;;;;9.13;5.20;;;;;;;8.48;53.19;100011.59;5033212;28;20116;-40
2024/02/15 00:07:27;;;;;;;7.47;4.90;;;;;;;8.76;52.48;100016.28;5033179;28;20025;-40
2024/02/15 00:09:53;;;;;;;7.50;4.82;;;;;;;8.97;51.88;100018.97;5032991;28;20029;-40
2024/02/15 00:12:19;;;;;;;6.57;4.78;;;;;;;8.37;52.89;100017.34;5033408;28;20025;-40
2024/02/15 00:14:44;;;;;;;6.05;4.40;;;;;;;8.73;52.46;100013.97;5033050;28;20368;-40
2024/02/15 00:17:11;;;;;;;7.78;4.35;;;;;;;8.59;52.56;100018.28;5032763;28;20029;-40
2024/02/15 00:19:38;;;;;;;6.72;4.43;;;;;;;8.30;53.23;100021.72;5033111;28;20116;-40
2024/02/15 00:22:04;;;;;;;9.23;5.25;;;;;;;8.39;53.01;100023.28;5032811;28;20044;-40
2024/02/15 00:24:30;;;;;;;6.72;4.70;;;;;;;8.40;53.31;100012.50;5033710;28;20026;-40
2024/02/15 00:26:56;;;;;;;8.77;4.70;;;;;;;8.49;52.69;100021.22;5033627;28;20035;-37
2024/02/15 00:29:22;;;;;;;7.80;4.80;;;;;;;8.52;52.59;100018.19;5033361;28;20109;-38
2024/02/15 00:31:47;;;;;;;8.15;4.80;;;;;;;8.53;52.70;100025.16;5032555;28;20484;-40
2024/02/15 00:34:13;;;;;;;5.70;4.35;;;;;;;8.28;53.35;100016.63;5033506;28;20027;-37
2024/02/15 00:36:41;;;;;;;9.10;4.90;;;;;;;8.27;53.20;100007.00;5033507;28;20177;-40
2024/02/15 00:39:08;;;;;;;7.75;4.45;;;;;;;8.25;53.53;100013.50;5033174;28;20057;-40
2024/02/15 00:41:33;;;;;;;6.63;4.68;;;;;;;8.13;53.84;100013.09;5033531;28;20033;-40
2024/02/15 00:43:59;;;;;;;6.85;4.30;;;;;;;7.98;53.86;100010.44;5033267;28;20025;-40
2024/02/15 00:46:27;;;;;;;6.57;4.60;;;;;;;8.34;53.02;100010.56;5033336;28;20037;-39
2024/02/15 00:48:52;;;;;;;6.70;4.80;;;;;;;8.40;52.95;100007.19;5033351;28;20029;-40
2024/02/15 00:51:18;;;;;;;7.57;4.68;;;;;;;8.36;53.29;100011.22;5033124;28;20465;-40
2024/02/15 00:53:43;;;;;;;7.97;5.13;;;;;;;8.25;53.32;100009.00;5033235;28;20083;-40
2024/02/15 00:56:09;;;;;;;6.75;4.57;;;;;;;8.37;52.61;100014.69;5033202;28;20438;-40
2024/02/15 00:58:34;;;;;;;8.48;5.00;;;;;;;8.17;53.33;100012.56;5033182;28;20116;-40
2024/02/15 01:00:59;;;;;;;7.50;4.78;;;;;;;8.41;52.60;100011.53;5032693;28;20049;-40
2024/02/15 01:03:25;;;;;;;6.95;4.60;;;;;;;8.21;53.47;100008.56;5033099;28;20375;-39
2024/02/15 01:05:51;;;;;;;7.28;4.45;;;;;;;8.13;53.48;100011.28;5032574;28;20022;-40
2024/02/15 01:08:17;;;;;;;6.88;4.30;;;;;;;8.15;53.66;100009.28;5032813;28;20036;-40
2024/02/15 01:10:42;;;;;;;7.45;4.78;;;;;;;8.47;52.97;100009.94;5032820;28;20029;-40
2024/02/15 01:13:08;;;;;;;5.80;4.15;;;;;;;8.35;53.29;100014.03;5032604;28;20031;-39
2024/02/15 01:15:34;;;;;;;6.75;4.63;;;;;;;8.34;53.30;100009.72;5032300;28;20023;-39
2024/02/15 01:17:59;;;;;;;7.15;4.40;;;;;;;8.39;53.34;100004.72;5031960;28;20128;-41
2024/02/15 01:20:24;;;;;;;7.88;4.18;;;;;;;8.18;53.01;100008.91;5032507;28;20044;-40
2024/02/15 01:22:51;;;;;;;7.28;4.72;;;;;;;8.32;52.40;100004.63;5032034;28;20459;-39
2024/02/15 01:25:17;;;;;;;8.00;4.63;;;;;;;7.97;54.11;100009.59;5032622;28;20549;-39
2024/02/15 01:27:42;;;;;;;8.07;4.75;;;;;;;7.90;54.26;100007.84;5032155;28;20113;-39
2024/02/15 01:30:08;;;;;;;7.40;4.40;;;;;;;7.95;54.31;99993.06;5032038;28;20108;-40
2024/02/15 01:32:34;;;;;;;7.82;5.00;;;;;;;8.00;53.65;100000.50;5032043;28;20021;-39
2024/02/15 01:35:00;;;;;;;10.05;5.00;;;;;;;8.02;53.96;100012.53;5032068;28;20549;-39
2024/02/15 01:37:25;;;;;;;6.82;4.65;;;;;;;8.01;53.91;99999.47;5032405;28;20025;-39
2024/02/15 01:39:51;;;;;;;6.05;4.50;;;;;;;8.19;53.70;99999.97;5032257;28;20036;-38
2024/02/15 01:42:16;;;;;;;7.18;4.60;;;;;;;7.96;54.06;100004.50;5032100;28;20108;-39
2024/02/15 01:44:43;;;;;;;8.13;4.40;;;;;;;7.83;54.68;100016.53;5031915;28;20064;-39
2024/02/15 01:47:10;;;;;;;7.43;4.75;;;;;;;7.81;54.21;100021.19;5031851;28;20420;-39
2024/02/15 01:49:36;;;;;;;8.02;4.90;;;;;;;7.78;54.83;100020.72;5031656;28;20018;-39
2024/02/15 01:52:05;;;;;;;6.88;4.40;;;;;;;7.83;54.76;100018.34;5031925;28;20036;-39
2024/02/15 01:54:31;;;;;;;7.53;4.90;;;;;;;7.57;55.12;100026.66;5031743;28;20021;-39
2024/02/15 01:56:57;;;;;;;6.20;4.85;;;;;;;7.44;56.08;100017.50;5031284;28;20021;-37
2024/02/15 01:59:24;;;;;;;8.10;4.50;;;;;;;7.52;55.41;100019.25;5031950;28;20025;-36
2024/02/15 02:01:50;;;;;;;7.68;4.95;;;;;;;7.37;55.52;100007.78;5031461;28;20029;-37
2024/02/15 02:04:15;;;;;;;6.20;4.28;;;;;;;7.13;56.17;100017.50;5031695;28;20021;-39
2024/02/15 02:06:41;;;;;;;6.38;4.57;;;;;;;7.20;56.19;100012.38;5031808;28;20026;-40
2024/02/15 02:09:12;;;;;;;8.02;5.05;;;;;;;7.28;55.78;100020.25;5031750;28;20056;-40
2024/02/15 02:11:38;;;;;;;9.15;5.28;;;;;;;7.61;55.05;100015.53;5031777;28;20049;-40
2024/02/15 02:14:04;;;;;;;8.00;4.72;;;;;;;7.61;54.87;100020.00;5031473;28;20037;-40
2024/02/15 02:16:33;;;;;;;9.45;4.53;;;;;;;7.20;55.38;100010.53;5031637;28;20014;-41
2024/02/15 02:18:59;;;;;;;8.43;4.78;;;;;;;7.04;56.08;100015.91;5031250;28;20047;-40
2024/02/15 02:21:26;;;;;;;8.27;4.80;;;;;;;7.15;55.44;100027.94;5031431;28;20029;-39
2024/02/15 02:23:58;;;;;;;7.53;4.97;;;;;;;7.07;55.91;100017.41;5049503;28;20333;-41
2024/02/15 02:26:24;;;;;;;8.93;5.00;;;;;;;7.15;55.96;100025.28;5051480;28;20381;-40
2024/02/15 02:28:50;;;;;;;8.77;4.60;;;;;;;7.11;55.89;100022.16;5051140;28;20099;-41
2024/02/15 02:31:16;;;;;;;7.72;4.60;;;;;;;7.27;55.77;100042.41;5051075;28;20461;-40
2024/02/15 02:33:42;;;;;;;8.38;4.82;;;;;;;7.00;56.07;100033.94;5051152;28;20025;-40
2024/02/15 02:36:10;;;;;;;7.50;5.00;;;;;;;6.82;56.18;100039.50;5034931;28;20021;-40
2024/02/15 02:38:37;;;;;;;7.80;4.68;;;;;;;6.82;56.34;100028.91;5030742;28;20045;-39
2024/02/15 02:41:04;;;;;;;6.88;4.70;;;;;;;7.17;55.92;100042.63;5031215;28;20492;-41
2024/02/15 02:43:29;;;;;;;7.75;4.68;;;;;;;6.99;56.45;100042.91;5030969;28;20505;-41
2024/02/15 02:45:55;;;;;;;9.70;5.03;;;;;;;7.32;54.97;100045.38;5019691;28;20037;-40
2024/02/15 02:48:21;;;;;;;7.28;5.20;;;;;;;7.10;55.61;100052.28;5011327;28;20036;-40
2024/02/15 02:50:47;;;;;;;8.30;4.72;;;;;;;6.80;56.21;100024.81;5010956;28;20498;-40
2024/02/15 02:53:13;;;;;;;7.57;4.82;;;;;;;6.90;56.51;100036.00;5010868;28;20061;-40
2024/02/15 02:55:41;;;;;;;7.82;5.47;;;;;;;6.76;57.05;100048.13;5012770;28;20108;-40
2024/02/15 02:58:07;;;;;;;7.57;5.20;;;;;;;7.07;55.97;100049.97;5015115;28;20041;-40
2024/02/15 03:00:33;;;;;;;8.00;4.88;;;;;;;6.94;56.02;100042.59;5032791;28;20378;-39
2024/02/15 03:02:59;;;;;;;9.88;5.20;;;;;;;7.21;55.39;100043.13;5035042;28;20033;-39
2024/02/15 03:05:25;;;;;;;8.70;4.63;;;;;;;6.97;56.07;100044.09;5035304;28;20029;-40
2024/02/15 03:07:51;;;;;;;8.30;4.80;;;;;;;6.92;56.13;100047.22;5033690;28;20382;-40
2024/02/15 03:10:18;;;;;;;6.72;4.57;;;;;;;6.90;56.33;100041.28;5035116;28;20036;-37
2024/02/15 03:12:46;;;;;;;7.70;5.00;;;;;;;6.65;56.74;100051.97;5034812;28;20029;-39
2024/02/15 03:15:12;;;;;;;9.32;4.70;;;;;;;6.76;56.26;100049.94;5034818;28;20108;-40
2024/02/15 03:17:40;;;;;;;8.38;5.18;;;;;;;6.86;56.04;100039.97;5034653;28;20122;-41
2024/02/15 03:20:12;;;;;;;7.78;4.82;;;;;;;6.94;56.06;100047.88;5034669;28;20033;-40
2024/02/15 03:22:38;;;;;;;6.75;4.82;;;;;;;6.86;55.98;100042.63;5035002;28;20021;-40
2024/02/15 03:25:08;;;;;;;8.70;4.80;;;;;;;6.94;55.82;100052.34;5034937;28;20082;-39
2024/02/15 03:27:35;;;;;;;8.50;5.00;;;;;;;6.86;56.43;100047.91;5034404;28;20064;-41
2024/02/15 03:30:01;;;;;;;7.15;5.07;;;;;;;7.32;55.40;100052.50;5034427;28;20036;-40
2024/02/15 03:32:27;;;;;;;7.00;5.00;;;;;;;6.90;55.94;100040.47;5034721;28;20029;-38
2024/02/15 03:34:54;;;;;;;7.38;4.88;;;;;;;6.91;56.29;100045.59;5034641;28;20029;-40
2024/02/15 03:37:20;;;;;;;7.90;4.78;;;;;;;6.99;55.71;100034.97;5034542;28;20081;-39
2024/02/15 03:39:45;;;;;;;7.78;4.82;;;;;;;6.87;56.19;100044.25;5034540;28;20025;-39
2024/02/15 03:42:11;;;;;;;7.20;5.03;;;;;;;6.78;56.09;100040.84;5034628;28;20051;-39
2024/02/15 03:44:38;;;;;;;7.65;5.15;;;;;;;7.03;55.36;100046.84;5034278;28;20818;-40
2024/02/15 03:47:05;;;;;;;6.82;4.90;;;;;;;7.04;55.29;100050.31;5034284;28;20052;-39
2024/02/15 03:49:31;;;;;;;8.00;5.10;;;;;;;7.01;55.89;100050.69;5034249;28;20037;-40
2024/02/15 03:51:59;;;;;;;8.13;5.10;;;;;;;7.39;54.75;100053.44;5033752;28;20036;-40
2024/02/15 03:54:29;;;;;;;7.80;4.68;;;;;;;7.18;54.96;100052.25;5034246;28;20052;-40
2024/02/15 03:56:57;;;;;;;7.78;5.10;;;;;;;7.03;55.35;100051.31;5033778;28;20018;-40
2024/02/15 03:59:26;;;;;;;8.38;5.20;;;;;;;7.08;55.24;100058.72;5034106;28;20025;-39
2024/02/15 04:01:56;;;;;;;8.20;5.65;;;;;;;7.31;54.82;100059.63;5034293;28;20026;-38
2024/02/15 04:04:22;;;;;;;7.15;4.75;;;;;;;6.95;55.25;100049.53;5033735;28;20357;-40
2024/02/15 04:06:48;;;;;;;7.78;5.22;;;;;;;7.05;55.55;100050.16;5032365;28;20026;-40
2024/02/15 04:09:14;;;;;;;6.97;4.82;;;;;;;6.91;55.79;100058.81;5034032;28;20025;-39
2024/02/15 04:11:40;;;;;;;7.70;4.88;;;;;;;6.83;55.85;100061.47;5033776;28;20063;-37
2024/02/15 04:14:05;;;;;;;6.97;4.93;;;;;;;6.94;55.54;100055.00;5038869;28;20123;-39
2024/02/15 04:16:31;;;;;;;9.23;5.20;;;;;;;6.84;55.71;100058.66;5045578;28;20354;-39
2024/02/15 04:18:57;;;;;;;7.68;4.78;;;;;;;6.74;56.10;100065.16;5033518;28;20045;-38
2024/02/15 04:21:23;;;;;;;6.55;4.93;;;;;;;6.76;56.29;100068.44;5041953;28;20041;-40
2024/02/15 04:23:49;;;;;;;7.88;5.20;;;;;;;6.81;56.05;100063.47;5038789;28;20044;-40
2024/02/15 04:26:14;;;;;;;8.02;5.25;;;;;;;6.81;56.25;100064.28;5041249;28;20411;-40
2024/02/15 04:28:41;;;;;;;9.25;5.93;;;;;;;7.11;55.07;100053.91;5038519;28;20029;-40
2024/02/15 04:31:08;;;;;;;7.90;5.00;;;;;;;7.05;55.08;100067.84;5044624;28;20036;-40
2024/02/15 04:33:34;;;;;;;8.30;5.50;;;;;;;7.13;55.25;100069.63;5045977;28;20025;-40
2024/02/15 04:36:02;;;;;;;8.45;5.40;;;;;;;7.22;54.67;100065.94;5033588;28;20028;-39
2024/02/15 04:38:28;;;;;;;8.70;5.78;;;;;;;7.04;54.64;100059.09;5033431;28;20029;-40
2024/02/15 04:40:54;;;;;;;8.00;5.32;;;;;;;6.99;55.33;100061.44;5033500;28;20029;-40
2024/02/15 04:43:20;;;;;;;6.57;4.80;;;;;;;7.22;53.67;100061.47;5033485;28;20023;-38
2024/02/15 04:45:45;;;;;;;8.65;5.47;;;;;;;7.14;54.33;100066.81;5033048;28;20018;-40
2024/02/15 04:48:13;;;;;;;7.45;4.80;;;;;;;6.88;55.53;100066.28;5033353;28;20044;-40
2024/02/15 04:50:42;;;;;;;10.52;6.03;;;;;;;6.85;56.02;100070.91;5032910;28;20100;-37
2024/02/15 04:53:08;;;;;;;6.60;4.78;;;;;;;7.12;55.09;100068.81;5032967;28;20095;-38
2024/02/15 04:55:35;;;;;;;7.82;5.20;;;;;;;7.10;55.06;100073.47;5033167;28;20100;-39
2024/02/15 04:58:01;;;;;;;7.40;4.53;;;;;;;6.94;55.31;100081.47;5032998;28;20021;-40
2024/02/15 05:00:26;;;;;;;9.05;5.47;;;;;;;6.92;55.33;100078.16;5033139;28;20148;-41
2024/02/15 05:02:52;;;;;;;11.25;5.60;;;;;;;7.47;54.34;100074.56;5031985;28;20025;-38
2024/02/15 05:05:19;;;;;;;6.68;4.80;;;;;;;7.77;53.13;100078.19;5033393;28;20025;-40
2024/02/15 05:07:44;;;;;;;7.68;4.95;;;;;;;7.32;54.09;100090.38;5032901;28;20108;-40
2024/02/15 05:10:10;;;;;;;6.88;4.75;;;;;;;7.54;53.81;100086.13;5033160;28;20100;-42
2024/02/15 05:12:37;;;;;;;7.53;5.07;;;;;;;7.63;53.23;100086.88;5032912;28;20025;-40
2024/02/15 05:15:09;;;;;;;8.82;5.50;;;;;;;7.83;52.80;100076.66;5032806;28;20453;-40
2024/02/15 05:17:36;;;;;;;9.40;5.05;;;;;;;7.85;52.99;100082.59;5032333;28;20060;-40
2024/02/15 05:20:10;;;;;;;9.32;4.88;;;;;;;7.86;53.01;100078.09;5033368;28;20025;-40
2024/02/15 05:22:36;;;;;;;8.48;5.35;;;;;;;8.27;51.65;100081.25;5033187;28;20021;-40
2024/02/15 05:25:02;;;;;;;6.75;4.97;;;;;;;8.42;50.89;100094.56;5032827;28;20033;-41
2024/02/15 05:27:27;;;;;;;10.85;6.13;;;;;;;8.55;51.02;100086.00;5032260;28;20029;-41
2024/02/15 05:29:52;;;;;;;12.13;6.25;;;;;;;8.48;52.69;100099.13;5032654;28;20025;-44
2024/02/15 05:32:19;;;;;;;7.63;5.40;;;;;;;8.47;52.29;100097.47;5032344;28;20063;-41
2024/02/15 05:34:45;;;;;;;7.38;4.90;;;;;;;8.41;51.83;100103.47;5032444;28;20022;-41
2024/02/15 05:37:11;;;;;;;8.18;5.20;;;;;;;8.18;51.95;100103.53;5032432;28;20120;-39
2024/02/15 05:39:36;;;;;;;11.77;5.82;;;;;;;8.11;52.49;100111.38;5032063;28;20104;-41
2024/02/15 05:42:02;;;;;;;9.68;5.78;;;;;;;8.19;51.88;100108.66;5032183;28;20029;-41
2024/02/15 05:44:27;;;;;;;8.88;5.10;;;;;;;8.32;51.30;100116.00;5031251;28;20025;-40
2024/02/15 05:46:53;;;;;;;7.63;5.20;;;;;;;8.34;51.54;100107.84;5031437;28;20036;-41
2024/02/15 05:49:19;;;;;;;6.88;4.63;;;;;;;8.13;52.34;100109.38;5031142;28;20117;-41
2024/02/15 05:51:45;;;;;;;7.90;5.25;;;;;;;8.40;51.30;100115.91;5031019;28;20503;-40
2024/02/15 05:54:11;;;;;;;9.57;5.53;;;;;;;8.37;51.72;100115.47;5031327;28;20025;-40
2024/02/15 05:56:36;;;;;;;12.15;5.60;;;;;;;7.89;53.46;100114.88;5030688;28;20499;-40
2024/02/15 05:59:09;;;;;;;8.10;5.25;;;;;;;8.07;52.30;100118.03;5039077;28;20055;-39
2024/02/15 06:01:35;;;;;;;10.07;5.88;;;;;;;8.35;51.97;100120.13;5032773;28;20066;-43
2024/02/15 06:04:04;;;;;;;8.50;5.45;;;;;;;8.14;51.72;100124.25;5031532;28;20112;-41
2024/02/15 06:06:30;;;;;;;8.90;5.27;;;;;;;8.45;50.75;100131.31;5030192;28;20025;-39
2024/02/15 06:08:59;;;;;;;10.15;5.78;;;;;;;8.30;51.59;100130.44;5031718;28;20333;-42
2024/02/15 06:11:25;;;;;;;12.85;5.10;;;;;;;7.94;52.83;100141.63;5030244;28;20162;-41
2024/02/15 06:13:50;;;;;;;9.48;5.35;;;;;;;7.85;53.31;100142.72;5031019;28;20048;-40
2024/02/15 06:16:15;;;;;;;8.38;5.45;;;;;;;7.90;52.80;100145.66;5031346;28;20032;-41
2024/02/15 06:18:41;;;;;;;8.45;5.13;;;;;;;8.08;52.90;100143.53;5031056;28;20501;-42
2024/02/15 06:21:06;;;;;;;10.52;5.40;;;;;;;8.05;52.65;100148.38;5042365;28;20044;-40
2024/02/15 06:23:33;;;;;;;8.70;5.07;;;;;;;7.63;53.79;100147.81;5031651;28;20017;-43
2024/02/15 06:26:00;;;;;;;10.20;5.25;;;;;;;7.51;53.91;100149.19;5037904;28;20017;-42
2024/02/15 06:39:42;;;;;;;12.77;5.90;;;;;;;8.25;52.69;100159.34;5039851;28;20035;-40
2024/02/15 06:42:15;;;;;;;7.15;4.80;;;;;;;8.42;52.27;100155.56;5048075;28;20032;-38
2024/02/15 06:44:41;;;;;;;10.02;5.20;;;;;;;8.07;52.52;100172.88;5041367;28;20014;-40
2024/02/15 06:47:06;;;;;;;10.32;5.60;;;;;;;7.81;53.00;100156.31;5038318;28;20036;-41
2024/02/15 06:49:33;;;;;;;8.95;5.63;;;;;;;8.31;52.02;100167.38;5041518;28;20083;-41
2024/02/15 06:52:01;;;;;;;7.53;5.45;;;;;;;8.51;51.53;100167.75;5040942;28;20025;-39
2024/02/15 06:54:27;;;;;;;8.68;5.47;;;;;;;8.35;51.87;100166.00;5031637;28;20061;-39
2024/02/15 06:56:54;;;;;;;10.07;5.70;;;;;;;8.43;51.85;100165.16;5030978;28;20052;-41
2024/02/15 06:59:22;;;;;;;8.20;5.50;;;;;;;8.39;51.54;100171.78;5031670;28;20048;-40
2024/02/15 07:01:48;;;;;;;9.43;5.30;;;;;;;8.36;51.60;100172.97;5031657;28;20036;-40
2024/02/15 07:04:14;;;;;;;12.45;5.93;;;;;;;8.32;52.20;100173.50;5025089;28;20040;-42
2024/02/15 07:06:39;;;;;;;9.30;5.80;;;;;;;8.85;50.60;100170.91;5022730;28;20112;-41
2024/02/15 07:09:09;;;;;;;12.93;6.05;;;;;;;8.49;52.03;100177.72;5017574;28;20412;-40
2024/02/15 07:11:35;;;;;;;9.13;5.97;;;;;;;8.70;51.54;100166.41;5031641;28;20116;-40
2024/02/15 07:14:01;;;;;;;7.82;4.97;;;;;;;8.33;52.19;100172.50;5031598;28;20104;-40
2024/02/15 07:16:27;;;;;;;7.78;5.43;;;;;;;8.74;51.77;100177.50;5030914;28;20420;-40
2024/02/15 07:18:53;;;;;;;7.60;5.20;;;;;;;8.84;50.80;100178.06;5030493;28;20053;-41
2024/02/15 07:21:23;;;;;;;8.63;5.32;;;;;;;9.05;50.63;100168.56;5030072;28;20045;-42
2024/02/15 07:23:48;;;;;;;9.48;5.75;;;;;;;9.42;49.21;100180.88;5030833;28;20041;-40
2024/02/15 07:26:15;;;;;;;10.23;5.68;;;;;;;9.54;50.07;100179.41;5030486;28;20466;-38
2024/02/15 07:28:40;;;;;;;9.73;5.35;;;;;;;9.75;48.85;100189.25;5030719;28;20469;-40
2024/02/15 07:31:06;;;;;;;10.43;5.20;;;;;;;9.83;48.52;100176.88;5030554;28;20025;-40
2024/02/15 07:33:32;;;;;;;8.63;5.70;;;;;;;9.68;48.68;100188.34;5031066;28;20029;-40
2024/02/15 07:35:57;;;;;;;10.85;5.65;;;;;;;9.41;49.11;100184.56;5030597;28;20458;-39
2024/02/15 07:38:23;;;;;;;7.45;5.60;;;;;;;10.21;47.47;100185.44;5030399;28;20104;-41
2024/02/15 07:40:49;;;;;;;10.27;5.68;;;;;;;10.36;47.03;100186.22;5030800;28;20029;-40
2024/02/15 07:43:15;;;;;;;11.85;5.45;;;;;;;10.31;46.87;100182.47;5034270;28;20022;-40
2024/02/15 07:45:40;;;;;;;9.25;5.78;;;;;;;10.28;47.38;100189.00;5034269;28;20083;-44
2024/02/15 07:48:06;;;;;;;10.18;5.43;;;;;;;10.06;47.28;100179.34;5034507;28;20030;-38
2024/02/15 07:50:32;;;;;;;9.20;5.53;;;;;;;10.54;45.78;100183.09;5034201;28;20095;-39
2024/02/15 07:52:57;;;;;;;9.82;5.75;;;;;;;10.36;46.93;100186.22;5034198;28;20037;-36
2024/02/15 07:55:24;;;;;;;9.85;5.63;;;;;;;10.95;45.44;100189.53;5032689;28;20039;-41
2024/02/15 07:57:50;;;;;;;12.35;6.07;;;;;;;11.59;44.64;100182.28;5033943;28;20036;-40
2024/02/15 08:00:16;;;;;;;11.25;5.57;;;;;;;12.21;42.99;100183.91;5033969;28;20421;-44
2024/02/15 08:02:42;;;;;;;9.70;5.43;;;;;;;12.05;42.40;100184.28;5033848;28;20465;-40
2024/02/15 08:05:10;;;;;;;9.30;5.53;;;;;;;12.13;42.29;100190.25;5034009;28;20120;-39
2024/02/15 08:07:45;;;;;;;11.25;5.55;;;;;;;12.17;42.87;100188.00;5034324;28;20178;-41
2024/02/15 08:10:14;;;;;;;11.15;5.55;;;;;;;12.48;41.32;100198.09;5033879;28;20030;-40
2024/02/15 08:12:52;;;;;;;10.38;5.85;;;;;;;12.45;41.57;100192.34;5033645;28;20107;-40
2024/02/15 08:15:17;;;;;;;13.35;6.00;;;;;;;12.65;41.10;100185.16;5033516;28;20087;-40
2024/02/15 08:17:48;;;;;;;8.30;5.25;;;;;;;13.07;40.45;100190.25;5033554;28;20045;-39
2024/02/15 08:20:14;;;;;;;8.30;5.63;;;;;;;12.82;40.14;100184.75;5033679;28;20029;-40
2024/02/15 08:22:41;;;;;;;12.05;7.88;;;;;;;12.89;40.87;100198.91;5033728;28;20025;-37
2024/02/15 08:25:11;;;;;;;9.77;5.90;;;;;;;11.84;42.68;100190.56;5033518;28;20025;-41
2024/02/15 08:27:44;;;;;;;11.50;5.53;;;;;;;13.17;40.46;100195.97;5033730;28;20027;-37
2024/02/15 08:30:14;;;;;;;10.65;5.93;;;;;;;12.71;40.66;100199.53;5033276;28;20021;-39
2024/02/15 08:32:41;;;;;;;10.10;6.65;;;;;;;13.11;40.29;100194.13;5033533;28;20021;-37
2024/02/15 08:35:08;;;;;;;9.95;6.45;;;;;;;13.11;40.28;100189.59;5033509;28;20120;-39
2024/02/15 08:37:38;;;;;;;11.65;5.75;;;;;;;13.39;39.28;100191.22;5033366;28;20104;-38
2024/02/15 08:40:05;;;;;;;8.52;4.97;;;;;;;12.51;40.33;100194.19;5033320;28;20029;-41
2024/02/15 08:42:30;;;;;;;9.25;5.70;;;;;;;12.27;41.68;100187.59;5033298;28;20056;-39
2024/02/15 08:44:57;;;;;;;8.93;5.80;;;;;;;13.19;40.85;100193.09;5033558;28;20083;-40
2024/02/15 08:47:22;;;;;;;9.48;5.50;;;;;;;13.51;39.56;100190.56;5033395;28;20021;-41
2024/02/15 08:49:47;;;;;;;8.70;5.55;;;;;;;12.98;39.70;100192.28;5033059;28;20401;-38
2024/02/15 08:52:13;;;;;;;9.05;5.82;;;;;;;13.13;40.32;100194.75;5032678;28;20061;-37
2024/02/15 08:54:38;;;;;;;7.65;5.90;;;;;;;13.43;39.52;100189.75;5026171;28;20417;-38
2024/02/15 08:57:05;;;;;;;8.38;5.55;;;;;;;13.43;39.55;100186.25;5041956;28;20021;-39
2024/02/15 08:59:30;;;;;;;8.55;5.30;;;;;;;13.04;39.95;100187.97;5041555;28;20056;-39
2024/02/15 09:01:56;;;;;;;9.65;5.40;;;;;;;13.04;40.19;100194.16;5042955;28;20049;-39
2024/02/15 09:04:24;;;;;;;9.25;5.40;;;;;;;13.35;39.67;100190.00;5040235;28;20013;-40
2024/02/15 09:06:50;;;;;;;10.05;5.97;;;;;;;13.47;39.42;100190.97;5041458;28;20013;-41
2024/02/15 09:09:16;;;;;;;10.07;5.47;;;;;;;12.93;40.04;100185.94;5042923;28;20052;-39
2024/02/15 09:11:41;;;;;;;9.02;5.72;;;;;;;12.69;40.91;100193.56;5041190;28;20045;-41
2024/02/15 09:14:09;;;;;;;7.80;5.15;;;;;;;13.24;40.01;100188.75;5038957;28;20033;-39
2024/02/15 09:16:35;;;;;;;8.68;5.80;;;;;;;13.48;39.42;100173.91;5041811;28;20021;-39
2024/02/15 09:19:06;;;;;;;9.07;6.03;;;;;;;13.66;39.44;100175.06;5043169;28;20063;-28
2024/02/15 09:21:33;;;;;;;10.13;6.07;;;;;;;13.18;39.87;100180.78;5032620;28;20551;-28
2024/02/15 09:23:59;;;;;;;10.27;5.80;;;;;;;12.99;40.48;100175.25;5012702;28;20486;-28
2024/02/15 09:26:24;;;;;;;11.40;6.00;;;;;;;13.85;39.39;100173.31;5012580;28;20026;-27
2024/02/15 09:28:50;;;;;;;9.38;5.78;;;;;;;13.93;38.06;100172.25;5012963;28;20106;-27
2024/02/15 09:31:15;;;;;;;10.52;6.00;;;;;;;13.56;38.92;100167.50;5012967;28;20029;-28
2024/02/15 09:33:40;;;;;;;9.90;5.30;;;;;;;13.44;39.42;100170.03;5011965;28;20025;-27
2024/02/15 09:36:06;;;;;;;9.90;5.57;;;;;;;13.33;39.07;100167.16;5012571;28;20475;-27
2024/02/15 09:38:32;;;;;;;7.53;5.45;;;;;;;13.77;38.64;100168.22;5012845;28;20014;-28
2024/02/15 09:40:57;;;;;;;8.73;5.20;;;;;;;13.60;39.58;100157.19;5012513;28;20034;-28
2024/02/15 09:43:25;;;;;;;8.05;5.25;;;;;;;13.61;39.03;100151.66;5012574;28;20386;-29
2024/02/15 09:45:52;;;;;;;8.65;5.40;;;;;;;13.53;39.43;100151.06;5012350;28;20571;-28
2024/02/15 09:48:18;;;;;;;7.90;5.53;;;;;;;13.93;38.79;100156.19;5012655;28;20112;-27
2024/02/15 09:50:46;;;;;;;9.15;5.60;;;;;;;14.34;37.97;100147.66;5012608;28;20101;-27
2024/02/15 09:53:12;;;;;;;8.15;5.43;;;;;;;14.08;37.91;100138.78;5012048;28;20045;-28
2024/02/15 09:55:41;;;;;;;8.63;5.05;;;;;;;13.48;39.14;100141.00;5012444;28;20022;-27
2024/02/15 09:58:08;;;;;;;7.82;5.05;;;;;;;13.43;39.34;100136.28;5012260;28;20018;-28
2024/02/15 10:00:34;;;;;;;10.38;5.05;;;;;;;13.74;38.36;100139.22;5012034;28;20027;-28
2024/02/15 10:03:02;;;;;;;6.50;4.90;;;;;;;13.61;39.51;100148.13;5012061;28;20037;-27
2024/02/15 10:05:28;;;;;;;7.45;5.05;;;;;;;13.29;39.84;100138.16;5011971;28;20075;-27
2024/02/15 10:07:53;;;;;;;10.65;5.00;;;;;;;12.99;40.13;100129.03;5011921;28;20096;-28
2024/02/15 10:10:21;;;;;;;11.07;5.43;;;;;;;13.84;38.88;100131.53;5011862;28;20490;-26
2024/02/15 10:12:56;;;;;;;9.32;5.18;;;;;;;13.55;38.99;100128.41;5012141;28;20021;-28
2024/02/15 10:15:38;;;;;;;7.80;5.50;;;;;;;13.52;40.31;100117.31;5012060;28;20108;-28
2024/02/15 10:18:10;;;;;;;8.15;5.88;;;;;;;13.66;40.00;100111.69;5011649;28;20107;-28
2024/02/15 10:20:38;;;;;;;8.35;5.25;;;;;;;14.42;38.62;100115.25;5012140;28;20033;-28
2024/02/15 10:23:09;;;;;;;9.95;5.50;;;;;;;14.20;38.87;100114.00;5012181;28;20109;-27
2024/02/15 10:25:36;;;;;;;9.82;5.28;;;;;;;14.00;38.63;100103.47;5011508;28;20056;-29
2024/02/15 10:28:10;;;;;;;11.43;5.20;;;;;;;13.66;39.39;100106.34;5011869;28;20156;-27
2024/02/15 10:30:43;;;;;;;9.00;5.43;;;;;;;13.81;39.78;100107.91;5011420;28;20061;-27
2024/02/15 10:33:09;;;;;;;9.20;5.38;;;;;;;14.38;37.77;100100.69;5012064;28;20026;-27
2024/02/15 10:35:34;;;;;;;7.68;5.10;;;;;;;13.83;38.89;100095.13;5011378;28;20093;-27
2024/02/15 10:38:08;;;;;;;10.68;5.70;;;;;;;14.09;38.48;100102.16;5011537;28;20105;-27
2024/02/15 10:40:33;;;;;;;10.30;5.82;;;;;;;13.95;38.74;100092.59;5011848;28;20044;-28
2024/02/15 10:42:59;;;;;;;9.27;5.13;;;;;;;14.45;38.13;100088.06;5011552;28;20026;-27
2024/02/15 10:45:25;;;;;;;9.05;4.85;;;;;;;14.78;37.18;100078.06;5011591;28;20065;-27
2024/02/15 10:47:52;;;;;;;8.90;5.03;;;;;;;14.77;37.78;100082.59;5012046;28;20114;-28
2024/02/15 10:50:17;;;;;;;7.68;5.05;;;;;;;14.58;37.19;100078.28;5028744;28;20029;-28
2024/02/15 10:52:56;;;;;;;10.07;5.45;;;;;;;14.67;37.32;100060.88;5031438;28;20052;-28
2024/02/15 10:55:29;;;;;;;7.70;4.70;;;;;;;14.63;37.59;100075.75;5031748;28;20086;-27
2024/02/15 10:58:03;;;;;;;6.75;4.35;;;;;;;14.16;37.82;100078.00;5031557;28;20022;-27
2024/02/15 11:00:31;;;;;;;6.80;4.60;;;;;;;13.88;38.66;100071.25;5031147;28;20052;-27
2024/02/15 11:03:09;;;;;;;6.50;4.30;;;;;;;14.57;37.69;100071.28;5031131;28;20558;-27
2024/02/15 11:05:37;;;;;;;7.18;4.70;;;;;;;14.95;36.47;100057.69;5030788;28;20025;-29
2024/02/15 11:08:08;;;;;;;7.10;4.32;;;;;;;14.62;37.23;100063.38;5031059;28;20095;-27
2024/02/15 11:10:35;;;;;;;5.43;4.07;;;;;;;14.80;36.62;100057.25;5031062;28;20043;-27
2024/02/15 11:13:01;;;;;;;7.88;4.60;;;;;;;14.12;37.79;100053.53;5031128;28;20040;-28
2024/02/15 11:15:36;;;;;;;6.75;4.80;;;;;;;14.92;36.47;100057.31;5031236;28;20029;-28
2024/02/15 11:18:01;;;;;;;7.00;4.57;;;;;;;15.15;36.24;100046.69;5034370;28;20057;-31
2024/02/15 11:20:36;;;;;;;7.97;4.90;;;;;;;14.32;37.45;100045.34;5034939;28;20030;-26
2024/02/15 11:23:03;;;;;;;6.13;4.55;;;;;;;14.54;37.59;100042.22;5035032;28;20037;-31
2024/02/15 11:25:39;;;;;;;5.80;4.15;;;;;;;15.06;36.56;100037.34;5034816;28;20025;-27
2024/02/15 11:28:22;;;;;;;5.13;3.92;;;;;;;15.05;36.39;100047.22;5034873;28;20029;-26
2024/02/15 11:30:51;;;;;;;5.57;3.78;;;;;;;14.89;36.36;100037.16;5034611;28;20115;-27
2024/02/15 11:33:27;;;;;;;7.43;3.95;;;;;;;15.46;36.26;100036.81;5034837;28;20049;-28
2024/02/15 11:36:12;;;;;;;5.95;3.97;;;;;;;16.00;34.91;100021.53;5034655;28;20033;-28
2024/02/15 11:38:41;;;;;;;6.03;4.15;;;;;;;15.41;35.94;100021.38;5034583;28;20033;-29